createdAt,value
2019-05-21T00:02:15.806Z,13.80
2019-05-21T00:04:49.590Z,13.80
2019-05-21T00:07:22.543Z,13.70
2019-05-21T00:09:53.605Z,13.70
2019-05-21T00:12:23.636Z,13.60
2019-05-21T00:14:58.836Z,13.60
2019-05-21T00:17:33.028Z,13.60
2019-05-21T00:20:05.450Z,13.50
2019-05-21T00:22:39.644Z,13.50
2019-05-21T00:25:12.010Z,13.40
2019-05-21T00:27:43.438Z,13.40
2019-05-21T00:30:49.628Z,13.40
2019-05-21T00:33:56.788Z,13.30
2019-05-21T00:37:03.009Z,13.30
2019-05-21T00:40:10.159Z,13.20
2019-05-21T00:42:45.989Z,13.20
2019-05-21T00:45:17.116Z,13.20
2019-05-21T00:47:50.336Z,13.20
2019-05-21T00:50:24.024Z,13.10
2019-05-21T00:52:55.016Z,13.10
2019-05-21T00:55:29.831Z,13.00
2019-05-21T00:58:04.001Z,13.00
2019-05-21T01:00:35.445Z,13.00
2019-05-21T01:03:05.929Z,13.10
2019-05-21T01:05:41.167Z,13.10
2019-05-21T01:08:13.344Z,13.10
2019-05-21T01:10:44.174Z,13.00
2019-05-21T01:13:18.546Z,13.00
2019-05-21T01:15:51.672Z,13.00
2019-05-21T01:18:22.724Z,13.00
2019-05-21T01:20:53.964Z,13.00
2019-05-21T01:23:25.186Z,13.00
2019-05-21T01:25:56.225Z,13.00
2019-05-21T01:28:27.451Z,12.90
2019-05-21T01:30:58.336Z,12.90
2019-05-21T01:33:31.399Z,12.90
2019-05-21T01:36:10.788Z,12.80
2019-05-21T01:38:43.502Z,12.80
2019-05-21T01:41:14.625Z,12.70
2019-05-21T01:43:45.841Z,12.70
2019-05-21T01:46:18.793Z,12.60
2019-05-21T01:48:51.209Z,12.50
2019-05-21T01:51:27.022Z,12.40
2019-05-21T01:54:02.108Z,12.40
2019-05-21T01:56:33.550Z,12.40
2019-05-21T01:59:08.104Z,12.30
2019-05-21T02:01:39.449Z,12.30
2019-05-21T02:04:11.485Z,12.30
2019-05-21T02:06:42.859Z,12.30
2019-05-21T02:09:17.154Z,12.30
2019-05-21T02:11:50.330Z,12.30
2019-05-21T02:14:23.033Z,12.30
2019-05-21T02:16:54.709Z,12.30
2019-05-21T02:19:26.871Z,12.30
2019-05-21T02:21:59.987Z,12.30
2019-05-21T02:24:31.474Z,12.20
2019-05-21T02:27:06.364Z,12.20
2019-05-21T02:29:37.706Z,12.10
2019-05-21T02:32:10.299Z,12.10
2019-05-21T02:34:42.910Z,12.10
2019-05-21T02:37:17.696Z,12.00
2019-05-21T02:39:50.399Z,12.00
2019-05-21T02:42:22.653Z,12.00
2019-05-21T02:44:54.228Z,12.00
2019-05-21T02:47:28.102Z,12.00
2019-05-21T02:49:59.059Z,12.00
2019-05-21T02:52:31.642Z,11.90
2019-05-21T02:55:02.020Z,11.90
2019-05-21T02:57:43.734Z,11.80
2019-05-21T03:00:39.195Z,11.80
2019-05-21T03:03:11.887Z,11.70
2019-05-21T03:05:45.828Z,11.70
2019-05-21T03:08:15.964Z,11.70
2019-05-21T03:10:48.172Z,11.70
2019-05-21T03:13:20.608Z,11.70
2019-05-21T03:15:54.743Z,11.70
2019-05-21T03:18:26.179Z,11.70
2019-05-21T03:20:56.127Z,11.80
2019-05-21T03:23:28.846Z,11.90
2019-05-21T03:26:03.301Z,11.80
2019-05-21T03:28:38.405Z,11.80
2019-05-21T03:31:09.950Z,11.90
2019-05-21T03:33:41.908Z,11.90
2019-05-21T03:36:31.086Z,11.90
2019-05-21T03:38:46.402Z,11.90
2019-05-21T03:41:17.932Z,11.90
2019-05-21T03:43:49.358Z,11.80
2019-05-21T03:46:23.413Z,11.80
2019-05-21T03:48:54.902Z,11.70
2019-05-21T03:51:27.977Z,11.80
2019-05-21T03:54:01.323Z,11.80
2019-05-21T03:56:33.608Z,11.80
2019-05-21T03:59:05.888Z,11.80
2019-05-21T04:01:37.002Z,11.80
2019-05-21T04:04:09.576Z,11.80
2019-05-21T04:06:51.686Z,11.80
2019-05-21T04:09:16.622Z,11.90
2019-05-21T04:11:52.867Z,11.90
2019-05-21T04:14:41.165Z,11.90
2019-05-21T04:17:12.171Z,12.00
2019-05-21T04:19:44.765Z,12.10
2019-05-21T04:22:21.084Z,12.10
2019-05-21T04:24:52.957Z,12.20
2019-05-21T04:27:26.717Z,12.30
2019-05-21T04:29:56.681Z,12.20
2019-05-21T04:32:29.335Z,12.30
2019-05-21T04:35:01.360Z,12.40
2019-05-21T04:37:32.628Z,12.50
2019-05-21T04:40:05.875Z,12.60
2019-05-21T04:42:40.260Z,12.70
2019-05-21T04:45:13.032Z,12.80
2019-05-21T04:47:47.951Z,13.00
2019-05-21T04:50:20.933Z,13.10
2019-05-21T04:52:54.706Z,13.10
2019-05-21T04:55:28.003Z,13.20
2019-05-21T04:58:01.682Z,13.20
2019-05-21T05:00:32.905Z,13.40
2019-05-21T05:03:03.694Z,13.60
2019-05-21T05:05:34.872Z,13.80
2019-05-21T05:08:05.614Z,14.00
2019-05-21T05:10:38.925Z,14.20
2019-05-21T05:13:09.886Z,14.40
2019-05-21T05:15:40.141Z,14.60
2019-05-21T05:18:12.655Z,14.80
2019-05-21T05:20:46.540Z,14.80
2019-05-21T05:23:20.700Z,14.90
2019-05-21T05:25:54.945Z,15.10
2019-05-21T05:28:45.829Z,15.30
2019-05-21T05:31:19.153Z,15.60
2019-05-21T05:33:52.440Z,15.90
2019-05-21T05:36:45.227Z,16.10
2019-05-21T05:39:16.742Z,16.20
2019-05-21T05:41:50.181Z,16.60
2019-05-21T05:44:23.976Z,16.90
2019-05-21T05:46:57.733Z,17.00
2019-05-21T05:49:33.422Z,17.10
2019-05-21T05:52:04.486Z,17.30
2019-05-21T05:54:37.154Z,17.50
2019-05-21T05:57:09.731Z,17.60
2019-05-21T06:02:12.481Z,17.60
2019-05-21T06:04:46.712Z,17.70
2019-05-21T06:07:18.012Z,17.90
2019-05-21T06:09:49.451Z,18.00
2019-05-21T06:12:20.679Z,18.30
2019-05-21T06:14:54.234Z,18.40
2019-05-21T06:17:28.725Z,18.50
2019-05-21T06:20:00.588Z,18.60
2019-05-21T06:22:33.566Z,18.60
2019-05-21T06:25:06.996Z,18.50
2019-05-21T06:27:38.883Z,18.50
2019-05-21T06:30:14.284Z,18.70
2019-05-21T06:32:46.913Z,18.80
2019-05-21T06:35:20.145Z,18.90
2019-05-21T06:37:52.694Z,19.00
2019-05-21T06:40:24.727Z,19.00
2019-05-21T06:43:03.288Z,18.90
2019-05-21T06:45:35.154Z,18.90
2019-05-21T06:48:07.931Z,18.90
2019-05-21T06:50:45.696Z,18.70
2019-05-21T06:53:17.514Z,18.70
2019-05-21T06:55:50.128Z,18.70
2019-05-21T06:58:24.961Z,18.90
2019-05-21T07:00:56.972Z,19.10
2019-05-21T07:03:32.167Z,19.10
2019-05-21T07:06:03.696Z,19.20
2019-05-21T07:08:37.859Z,19.40
2019-05-21T07:11:14.188Z,19.60
2019-05-21T07:13:52.054Z,19.60
2019-05-21T07:16:26.067Z,19.80
2019-05-21T07:18:59.812Z,19.80
2019-05-21T07:21:31.497Z,20.10
2019-05-21T07:24:04.665Z,20.30
2019-05-21T07:26:36.940Z,20.30
2019-05-21T07:29:14.805Z,20.40
2019-05-21T07:31:47.630Z,20.40
2019-05-21T07:34:21.166Z,20.60
2019-05-21T07:36:52.612Z,20.70
2019-05-21T07:39:24.601Z,20.70
2019-05-21T07:41:59.070Z,20.80
2019-05-21T07:44:34.107Z,20.80
2019-05-21T07:47:11.271Z,21.00
2019-05-21T07:49:41.507Z,21.00
2019-05-21T07:52:31.500Z,21.00
2019-05-21T07:55:04.048Z,21.00
2019-05-21T07:57:38.289Z,20.70
2019-05-21T08:00:11.839Z,20.70
2019-05-21T08:03:02.248Z,20.70
2019-05-21T08:05:32.748Z,20.50
2019-05-21T08:08:04.293Z,20.40
2019-05-21T08:10:37.733Z,20.60
2019-05-21T08:13:10.169Z,20.60
2019-05-21T08:15:40.482Z,20.70
2019-05-21T08:18:12.027Z,20.90
2019-05-21T08:20:44.281Z,20.90
2019-05-21T08:23:14.387Z,21.00
2019-05-21T08:25:48.199Z,21.00
2019-05-21T08:28:19.356Z,21.10
2019-05-21T08:30:50.496Z,21.00
2019-05-21T08:33:20.683Z,20.90
2019-05-21T08:35:58.986Z,20.90
2019-05-21T08:38:31.377Z,21.20
2019-05-21T08:43:53.161Z,21.20
2019-05-21T08:46:24.882Z,21.10
2019-05-21T08:51:49.798Z,20.90
2019-05-21T08:54:24.853Z,20.90
2019-05-21T08:56:56.154Z,21.00
2019-05-21T08:59:32.749Z,21.20
2019-05-21T09:02:03.685Z,21.30
2019-05-21T09:04:46.442Z,21.20
2019-05-21T09:07:14.853Z,20.80
2019-05-21T09:09:54.339Z,20.80
2019-05-21T09:12:27.314Z,20.80
2019-05-21T09:15:01.297Z,20.70
2019-05-21T09:17:37.771Z,20.70
2019-05-21T09:20:13.057Z,20.70
2019-05-21T09:22:43.345Z,20.60
2019-05-21T09:25:13.695Z,20.70
2019-05-21T09:27:47.516Z,20.90
2019-05-21T09:30:19.144Z,21.00
2019-05-21T09:32:51.757Z,21.20
2019-05-21T09:35:27.052Z,21.30
2019-05-21T09:37:59.420Z,21.30
2019-05-21T09:40:34.469Z,21.30
2019-05-21T09:43:10.133Z,21.30
2019-05-21T09:45:41.557Z,21.40
2019-05-21T09:48:16.042Z,21.40
2019-05-21T09:53:46.754Z,21.70
2019-05-21T09:56:33.681Z,21.70
2019-05-21T09:59:27.018Z,21.80
2019-05-21T10:02:02.897Z,22.00
2019-05-21T10:04:36.154Z,22.00
2019-05-21T10:07:08.237Z,22.00
2019-05-21T10:09:39.902Z,22.30
2019-05-21T10:12:11.871Z,22.60
2019-05-21T10:14:48.130Z,22.80
2019-05-21T10:17:21.690Z,22.80
2019-05-21T10:19:53.275Z,22.80
2019-05-21T10:22:25.628Z,22.90
2019-05-21T10:25:01.432Z,23.20
2019-05-21T10:30:08.515Z,23.40
2019-05-21T10:32:39.781Z,23.40
2019-05-21T10:35:11.013Z,23.30
2019-05-21T10:37:54.548Z,23.40
2019-05-21T10:40:20.204Z,23.50
2019-05-21T10:42:50.480Z,23.70
2019-05-21T10:45:23.252Z,23.90
2019-05-21T10:50:31.425Z,23.90
2019-05-21T10:53:07.741Z,23.80
2019-05-21T10:55:40.883Z,24.10
2019-05-21T10:58:14.966Z,24.00
2019-05-21T11:00:46.285Z,23.90
2019-05-21T11:03:27.516Z,23.80
2019-05-21T11:06:10.138Z,23.60
2019-05-21T11:08:35.807Z,23.50
2019-05-21T11:11:10.015Z,23.60
2019-05-21T11:13:41.437Z,23.70
2019-05-21T11:16:13.576Z,23.70
2019-05-21T11:18:42.979Z,23.80
2019-05-21T11:21:14.963Z,23.70
2019-05-21T11:23:49.252Z,23.80
2019-05-21T11:26:22.846Z,23.80
2019-05-21T11:28:56.695Z,23.80
2019-05-21T11:31:28.344Z,23.80
2019-05-21T11:34:03.465Z,23.50
2019-05-21T11:36:37.633Z,23.30
2019-05-21T11:39:10.521Z,23.20
2019-05-21T11:41:41.339Z,23.30
2019-05-21T11:44:13.768Z,23.40
2019-05-21T11:46:45.209Z,23.40
2019-05-21T11:49:18.556Z,23.30
2019-05-21T11:51:51.465Z,23.40
2019-05-21T11:54:28.059Z,23.40
2019-05-21T11:57:01.523Z,23.50
2019-05-21T11:59:32.929Z,23.60
2019-05-21T12:02:04.147Z,23.70
2019-05-21T12:04:36.767Z,23.50
2019-05-21T12:07:15.031Z,23.50
2019-05-21T12:09:48.263Z,23.60
2019-05-21T12:12:19.649Z,23.50
2019-05-21T12:14:53.107Z,23.50
2019-05-21T12:17:28.979Z,23.10
2019-05-21T12:20:00.288Z,23.00
2019-05-21T12:22:31.300Z,23.00
2019-05-21T12:25:04.649Z,23.10
2019-05-21T12:27:37.234Z,23.10
2019-05-21T12:30:09.972Z,23.10
2019-05-21T12:32:41.016Z,23.00
2019-05-21T12:35:10.891Z,23.00
2019-05-21T12:37:42.140Z,23.00
2019-05-21T12:40:17.010Z,23.10
2019-05-21T12:42:49.909Z,23.10
2019-05-21T12:45:22.112Z,22.90
2019-05-21T12:47:55.884Z,22.90
2019-05-21T12:50:32.370Z,22.90
2019-05-21T12:53:05.657Z,22.80
2019-05-21T12:55:49.168Z,22.60
2019-05-21T12:58:21.890Z,22.60
2019-05-21T13:00:56.122Z,22.70
2019-05-21T13:03:30.317Z,22.70
2019-05-21T13:06:01.926Z,22.80
2019-05-21T13:08:33.423Z,22.90
2019-05-21T13:11:06.174Z,22.90
2019-05-21T13:13:37.657Z,22.80
2019-05-21T13:16:09.420Z,22.90
2019-05-21T13:18:40.447Z,23.10
2019-05-21T13:21:11.680Z,23.10
2019-05-21T13:23:47.871Z,23.20
2019-05-21T13:26:18.958Z,23.40
2019-05-21T13:28:52.642Z,23.60
2019-05-21T13:31:25.240Z,23.70
2019-05-21T13:34:00.565Z,23.90
2019-05-21T13:36:33.041Z,24.30
2019-05-21T13:39:04.320Z,24.50
2019-05-21T13:41:35.278Z,24.60
2019-05-21T13:44:06.756Z,24.50
2019-05-21T13:46:36.953Z,24.70
2019-05-21T13:49:10.025Z,24.90
2019-05-21T13:51:42.435Z,25.00
2019-05-21T13:54:14.820Z,24.90
2019-05-21T13:56:49.020Z,24.70
2019-05-21T13:59:20.656Z,24.60
2019-05-21T14:01:52.213Z,24.50
2019-05-21T14:06:54.825Z,24.50
2019-05-21T14:09:26.275Z,24.40
2019-05-21T14:11:56.700Z,24.50
2019-05-21T14:14:32.235Z,24.60
2019-05-21T14:17:04.628Z,24.50
2019-05-21T14:19:35.838Z,24.40
2019-05-21T14:22:08.536Z,24.40
2019-05-21T14:24:41.039Z,24.40
2019-05-21T14:27:14.668Z,24.40
2019-05-21T14:29:47.296Z,24.30
2019-05-21T14:32:19.857Z,24.10
2019-05-21T14:35:01.343Z,24.10
2019-05-21T14:37:27.835Z,24.10
2019-05-21T14:40:01.387Z,24.00
2019-05-21T14:42:33.736Z,23.90
2019-05-21T14:45:06.801Z,23.80
2019-05-21T14:47:41.756Z,23.70
2019-05-21T14:50:14.052Z,23.80
2019-05-21T14:52:46.244Z,23.80
2019-05-21T14:55:16.330Z,23.80
2019-05-21T14:57:47.227Z,23.70
2019-05-21T15:00:26.042Z,23.70
2019-05-21T15:02:56.899Z,23.70
2019-05-21T15:05:26.910Z,23.80
2019-05-21T15:07:56.818Z,23.80
2019-05-21T15:10:29.547Z,24.00
2019-05-21T15:13:05.818Z,24.00
2019-05-21T15:15:34.917Z,23.80
2019-05-21T15:18:10.330Z,23.70
2019-05-21T15:20:46.015Z,23.60
2019-05-21T15:23:19.407Z,23.60
2019-05-21T15:28:21.722Z,23.60
2019-05-21T15:30:53.283Z,23.50
2019-05-21T15:33:23.981Z,23.30
2019-05-21T15:35:56.442Z,23.20
2019-05-21T15:38:27.956Z,23.20
2019-05-21T15:41:09.528Z,23.20
2019-05-21T15:43:29.568Z,23.20
2019-05-21T15:46:00.994Z,23.10
2019-05-21T15:48:31.092Z,23.10
2019-05-21T15:51:00.655Z,23.10
2019-05-21T15:53:33.549Z,23.10
2019-05-21T15:56:04.651Z,23.10
2019-05-21T15:58:36.382Z,23.00
2019-05-21T16:01:08.816Z,23.10
2019-05-21T16:03:38.748Z,23.20
2019-05-21T16:06:09.991Z,23.20
2019-05-21T16:08:42.328Z,23.10
2019-05-21T16:11:27.287Z,23.00
2019-05-21T16:13:49.630Z,22.80
2019-05-21T16:16:21.950Z,22.70
2019-05-21T16:18:55.909Z,22.60
2019-05-21T16:21:27.254Z,22.40
2019-05-21T16:24:02.084Z,22.30
2019-05-21T16:26:36.587Z,22.10
2019-05-21T16:29:07.811Z,22.00
2019-05-21T16:31:40.513Z,22.00
2019-05-21T16:34:13.091Z,21.90
2019-05-21T16:36:44.036Z,21.90
2019-05-21T16:39:15.998Z,21.80
2019-05-21T16:44:21.493Z,21.70
2019-05-21T16:46:52.779Z,21.60
2019-05-21T16:49:25.418Z,21.60
2019-05-21T16:51:56.619Z,21.50
2019-05-21T16:54:29.426Z,21.50
2019-05-21T16:57:00.436Z,21.40
2019-05-21T16:59:32.899Z,21.40
2019-05-21T17:02:04.640Z,21.40
2019-05-21T17:04:38.263Z,21.40
2019-05-21T17:07:09.056Z,21.40
2019-05-21T17:09:40.187Z,21.30
2019-05-21T17:12:13.582Z,21.20
2019-05-21T17:14:46.043Z,21.20
2019-05-21T17:17:19.147Z,21.00
2019-05-21T17:19:48.871Z,20.90
2019-05-21T17:24:53.680Z,20.70
2019-05-21T17:27:24.929Z,20.50
2019-05-21T17:29:58.023Z,20.40
2019-05-21T17:32:29.941Z,20.10
2019-05-21T17:35:03.051Z,20.00
2019-05-21T17:37:34.059Z,19.70
2019-05-21T17:40:05.914Z,19.60
2019-05-21T17:42:37.497Z,19.40
2019-05-21T17:45:27.389Z,19.30
2019-05-21T17:47:57.497Z,19.20
2019-05-21T17:50:28.717Z,19.20
2019-05-21T17:53:02.206Z,19.10
2019-05-21T17:55:32.349Z,19.00
2019-05-21T17:58:04.757Z,18.90
2019-05-21T18:00:43.260Z,18.80
2019-05-21T18:03:14.578Z,18.60
2019-05-21T18:05:45.262Z,18.40
2019-05-21T18:08:17.300Z,18.20
2019-05-21T18:10:50.187Z,18.20
2019-05-21T18:13:25.562Z,18.00
2019-05-21T18:15:57.626Z,17.90
2019-05-21T18:18:29.329Z,17.70
2019-05-21T18:21:01.290Z,17.60
2019-05-21T18:23:32.916Z,17.60
2019-05-21T18:26:04.222Z,17.60
2019-05-21T18:28:37.268Z,17.50
2019-05-21T18:31:07.381Z,17.50
2019-05-21T18:33:38.863Z,17.50
2019-05-21T18:38:43.004Z,17.30
2019-05-21T18:41:14.035Z,17.40
2019-05-21T18:43:45.917Z,17.30
2019-05-21T18:46:18.247Z,17.30
2019-05-21T18:48:49.469Z,17.20
2019-05-21T18:51:20.586Z,17.20
2019-05-21T18:53:51.893Z,17.30
2019-05-21T18:56:23.562Z,17.30
2019-05-21T18:58:54.709Z,17.30
2019-05-21T19:01:25.385Z,17.20
2019-05-21T19:03:56.834Z,17.30
2019-05-21T19:06:26.711Z,17.20
2019-05-21T19:08:59.769Z,17.20
2019-05-21T19:11:29.853Z,17.20
2019-05-21T19:14:01.087Z,17.30
2019-05-21T19:16:32.747Z,17.20
2019-05-21T19:19:05.217Z,17.30
2019-05-21T19:21:36.192Z,17.30
2019-05-21T19:24:07.392Z,17.20
2019-05-21T19:26:39.776Z,17.20
2019-05-21T19:29:09.838Z,17.10
2019-05-21T19:31:41.071Z,17.10
2019-05-21T19:34:10.320Z,17.10
2019-05-21T19:36:41.435Z,17.00
2019-05-21T19:39:16.595Z,17.00
2019-05-21T19:41:47.858Z,17.00
2019-05-21T19:44:21.217Z,17.00
2019-05-21T19:46:52.255Z,16.90
2019-05-21T19:49:24.674Z,16.90
2019-05-21T19:51:57.559Z,17.00
2019-05-21T19:54:29.963Z,17.00
2019-05-21T19:57:02.689Z,17.00
2019-05-21T19:59:34.410Z,17.00
2019-05-21T20:02:10.472Z,17.00
2019-05-21T20:04:40.526Z,17.00
2019-05-21T20:07:14.711Z,16.90
2019-05-21T20:09:47.082Z,16.90
2019-05-21T20:12:19.617Z,16.90
2019-05-21T20:14:50.940Z,16.90
2019-05-21T20:17:22.873Z,16.90
2019-05-21T20:19:54.664Z,16.90
2019-05-21T20:22:26.381Z,16.80
2019-05-21T20:24:58.983Z,16.70
2019-05-21T20:27:31.380Z,16.50
2019-05-21T20:30:12.094Z,16.50
2019-05-21T20:32:34.861Z,16.40
2019-05-21T20:35:08.479Z,16.40
2019-05-21T20:37:41.699Z,16.40
2019-05-21T20:40:15.112Z,16.40
2019-05-21T20:42:47.292Z,16.40
2019-05-21T20:45:19.892Z,16.40
2019-05-21T20:47:53.415Z,16.30
2019-05-21T20:50:25.765Z,16.30
2019-05-21T20:52:55.763Z,16.20
2019-05-21T20:55:27.985Z,16.20
2019-05-21T20:57:59.111Z,16.10
2019-05-21T21:00:34.241Z,16.00
2019-05-21T21:03:06.534Z,15.80
2019-05-21T21:05:40.163Z,15.70
2019-05-21T21:08:13.298Z,15.60
2019-05-21T21:10:46.269Z,15.50
2019-05-21T21:13:17.441Z,15.50
2019-05-21T21:15:47.797Z,15.50
2019-05-21T21:18:18.292Z,15.50
2019-05-21T21:20:48.566Z,15.60
2019-05-21T21:23:20.422Z,15.60
2019-05-21T21:25:53.632Z,15.60
2019-05-21T21:28:26.903Z,15.70
2019-05-21T21:30:58.851Z,15.60
2019-05-21T21:33:27.856Z,15.60
2019-05-21T21:36:01.539Z,15.60
2019-05-21T21:38:36.319Z,15.60
2019-05-21T21:41:08.373Z,15.50
2019-05-21T21:43:39.477Z,15.60
2019-05-21T21:46:13.361Z,15.60
2019-05-21T21:48:45.922Z,15.50
2019-05-21T21:51:18.154Z,15.60
2019-05-21T21:53:49.551Z,15.50
2019-05-21T21:56:20.872Z,15.50
2019-05-21T21:58:53.265Z,15.50
2019-05-21T22:01:44.053Z,15.50
2019-05-21T22:04:17.234Z,15.50
2019-05-21T22:06:48.605Z,15.40
2019-05-21T22:09:21.962Z,15.40
2019-05-21T22:11:56.338Z,15.40
2019-05-21T22:14:29.342Z,15.40
2019-05-21T22:16:59.562Z,15.30
2019-05-21T22:19:29.872Z,15.30
2019-05-21T22:22:00.420Z,15.30
2019-05-21T22:24:33.781Z,15.30
2019-05-21T22:27:04.604Z,15.20
2019-05-21T22:29:36.001Z,15.20
2019-05-21T22:32:07.984Z,15.20
2019-05-21T22:34:39.123Z,15.20
2019-05-21T22:37:10.946Z,15.20
2019-05-21T22:39:43.718Z,15.20
2019-05-21T22:42:14.171Z,15.10
2019-05-21T22:44:44.749Z,15.10
2019-05-21T22:47:18.787Z,15.00
2019-05-21T22:49:48.965Z,15.00
2019-05-21T22:52:20.141Z,15.00
2019-05-21T22:54:50.686Z,15.00
2019-05-21T22:57:20.657Z,15.00
2019-05-21T22:59:50.773Z,15.00
2019-05-21T23:02:23.433Z,15.00
2019-05-21T23:04:54.682Z,15.00
2019-05-21T23:07:24.900Z,15.00
2019-05-21T23:09:56.903Z,15.10
2019-05-21T23:12:27.950Z,15.10
2019-05-21T23:14:59.212Z,15.10
2019-05-21T23:17:30.441Z,15.10
2019-05-21T23:20:04.577Z,15.10
2019-05-21T23:22:36.402Z,15.10
2019-05-21T23:25:11.131Z,15.10
2019-05-21T23:27:43.947Z,15.10
2019-05-21T23:30:34.133Z,15.10
2019-05-21T23:33:05.684Z,15.10
2019-05-21T23:35:37.048Z,15.10
2019-05-21T23:38:09.622Z,15.20
2019-05-21T23:40:39.519Z,15.10
2019-05-21T23:43:12.890Z,15.20
2019-05-21T23:45:43.899Z,15.20
2019-05-21T23:48:14.863Z,15.20
2019-05-21T23:50:46.244Z,15.20
2019-05-21T23:53:20.033Z,15.20
2019-05-21T23:55:50.171Z,15.30
2019-05-21T23:58:21.520Z,15.30
